sensor_id;sensor_type;location;lat;lon;timestamp;temperature;humidity
22161;DHT22;49035;48.812;11.762;2023-05-29T00:01:14;8.00;99.90
22161;DHT22;49035;48.812;11.762;2023-05-29T00:03:44;7.90;99.90
22161;DHT22;49035;48.812;11.762;2023-05-29T00:06:10;7.90;99.90
22161;DHT22;49035;48.812;11.762;2023-05-29T00:08:36;7.80;99.90
22161;DHT22;49035;48.812;11.762;2023-05-29T00:11:01;7.80;99.90
22161;DHT22;49035;48.812;11.762;2023-05-29T00:13:27;7.90;99.90
22161;DHT22;49035;48.812;11.762;2023-05-29T00:15:52;7.90;99.90
22161;DHT22;49035;48.812;11.762;2023-05-29T00:18:18;8.00;99.90
22161;DHT22;49035;48.812;11.762;2023-05-29T00:20:43;8.00;99.90
22161;DHT22;49035;48.812;11.762;2023-05-29T00:23:10;8.10;99.90
22161;DHT22;49035;48.812;11.762;2023-05-29T00:25:35;8.10;99.90
22161;DHT22;49035;48.812;11.762;2023-05-29T00:28:01;8.00;99.90
22161;DHT22;49035;48.812;11.762;2023-05-29T00:30:27;8.00;99.90
22161;DHT22;49035;48.812;11.762;2023-05-29T00:32:52;7.90;99.90
22161;DHT22;49035;48.812;11.762;2023-05-29T00:35:19;7.80;99.90
22161;DHT22;49035;48.812;11.762;2023-05-29T00:37:45;7.80;99.90
22161;DHT22;49035;48.812;11.762;2023-05-29T00:40:11;7.70;99.90
22161;DHT22;49035;48.812;11.762;2023-05-29T00:42:37;7.60;99.90
22161;DHT22;49035;48.812;11.762;2023-05-29T00:45:03;7.70;99.90
22161;DHT22;49035;48.812;11.762;2023-05-29T00:47:29;7.60;99.90
22161;DHT22;49035;48.812;11.762;2023-05-29T00:49:56;7.70;99.90
22161;DHT22;49035;48.812;11.762;2023-05-29T00:52:23;7.60;99.90
22161;DHT22;49035;48.812;11.762;2023-05-29T00:54:50;7.50;99.90
22161;DHT22;49035;48.812;11.762;2023-05-29T00:57:16;7.50;99.90
22161;DHT22;49035;48.812;11.762;2023-05-29T00:59:44;7.60;99.90
22161;DHT22;49035;48.812;11.762;2023-05-29T01:02:10;7.70;99.90
22161;DHT22;49035;48.812;11.762;2023-05-29T01:04:36;7.70;99.90
22161;DHT22;49035;48.812;11.762;2023-05-29T01:07:02;7.70;99.90
22161;DHT22;49035;48.812;11.762;2023-05-29T01:09:31;7.70;99.90
22161;DHT22;49035;48.812;11.762;2023-05-29T01:14:54;7.70;99.90
22161;DHT22;49035;48.812;11.762;2023-05-29T01:23:07;7.50;99.90
22161;DHT22;49035;48.812;11.762;2023-05-29T01:25:46;7.40;99.90
22161;DHT22;49035;48.812;11.762;2023-05-29T01:28:16;7.40;99.90
22161;DHT22;49035;48.812;11.762;2023-05-29T01:30:43;7.30;99.90
22161;DHT22;49035;48.812;11.762;2023-05-29T01:33:09;7.30;99.90
22161;DHT22;49035;48.812;11.762;2023-05-29T01:35:35;7.30;99.90
22161;DHT22;49035;48.812;11.762;2023-05-29T01:38:01;7.30;99.90
22161;DHT22;49035;48.812;11.762;2023-05-29T01:40:26;7.30;99.90
22161;DHT22;49035;48.812;11.762;2023-05-29T01:42:52;7.30;99.90
22161;DHT22;49035;48.812;11.762;2023-05-29T01:45:18;7.30;99.90
22161;DHT22;49035;48.812;11.762;2023-05-29T01:47:44;7.20;99.90
22161;DHT22;49035;48.812;11.762;2023-05-29T01:50:10;7.20;99.90
22161;DHT22;49035;48.812;11.762;2023-05-29T01:52:38;7.20;99.90
22161;DHT22;49035;48.812;11.762;2023-05-29T01:55:04;7.30;99.90
22161;DHT22;49035;48.812;11.762;2023-05-29T01:57:30;7.20;99.90
22161;DHT22;49035;48.812;11.762;2023-05-29T01:59:56;7.10;99.90
22161;DHT22;49035;48.812;11.762;2023-05-29T02:02:22;7.10;99.90
22161;DHT22;49035;48.812;11.762;2023-05-29T02:04:50;7.00;99.90
22161;DHT22;49035;48.812;11.762;2023-05-29T02:07:17;7.00;99.90
22161;DHT22;49035;48.812;11.762;2023-05-29T02:09:42;7.00;99.90
22161;DHT22;49035;48.812;11.762;2023-05-29T02:12:08;7.00;99.90
22161;DHT22;49035;48.812;11.762;2023-05-29T02:14:34;7.00;99.90
22161;DHT22;49035;48.812;11.762;2023-05-29T02:17:00;7.10;99.90
22161;DHT22;49035;48.812;11.762;2023-05-29T02:19:26;7.10;99.90
22161;DHT22;49035;48.812;11.762;2023-05-29T02:21:52;7.10;99.90
22161;DHT22;49035;48.812;11.762;2023-05-29T02:24:18;7.00;99.90
22161;DHT22;49035;48.812;11.762;2023-05-29T02:26:45;7.00;99.90
22161;DHT22;49035;48.812;11.762;2023-05-29T02:29:11;7.00;99.90
22161;DHT22;49035;48.812;11.762;2023-05-29T02:31:36;7.00;99.90
22161;DHT22;49035;48.812;11.762;2023-05-29T02:34:02;7.00;99.90
22161;DHT22;49035;48.812;11.762;2023-05-29T02:36:27;7.00;99.90
22161;DHT22;49035;48.812;11.762;2023-05-29T02:38:53;6.90;99.90
22161;DHT22;49035;48.812;11.762;2023-05-29T02:41:18;6.90;99.90
22161;DHT22;49035;48.812;11.762;2023-05-29T02:43:44;6.90;99.90
22161;DHT22;49035;48.812;11.762;2023-05-29T02:46:10;6.90;99.90
22161;DHT22;49035;48.812;11.762;2023-05-29T02:48:35;6.80;99.90
22161;DHT22;49035;48.812;11.762;2023-05-29T02:51:01;6.80;99.90
22161;DHT22;49035;48.812;11.762;2023-05-29T02:53:26;6.80;99.90
22161;DHT22;49035;48.812;11.762;2023-05-29T02:55:52;6.70;99.90
22161;DHT22;49035;48.812;11.762;2023-05-29T02:58:17;6.70;99.90
22161;DHT22;49035;48.812;11.762;2023-05-29T03:00:43;6.50;99.90
22161;DHT22;49035;48.812;11.762;2023-05-29T03:03:09;6.40;99.90
22161;DHT22;49035;48.812;11.762;2023-05-29T03:05:34;6.50;99.90
22161;DHT22;49035;48.812;11.762;2023-05-29T03:08:00;6.50;99.90
22161;DHT22;49035;48.812;11.762;2023-05-29T03:10:26;6.40;99.90
22161;DHT22;49035;48.812;11.762;2023-05-29T03:12:51;6.50;99.90
22161;DHT22;49035;48.812;11.762;2023-05-29T03:15:17;6.50;99.90
22161;DHT22;49035;48.812;11.762;2023-05-29T03:17:46;6.40;99.90
22161;DHT22;49035;48.812;11.762;2023-05-29T03:20:11;6.40;99.90
22161;DHT22;49035;48.812;11.762;2023-05-29T03:22:38;6.60;99.90
22161;DHT22;49035;48.812;11.762;2023-05-29T03:25:04;6.70;99.90
22161;DHT22;49035;48.812;11.762;2023-05-29T03:27:33;6.60;99.90
22161;DHT22;49035;48.812;11.762;2023-05-29T03:29:59;6.60;99.90
22161;DHT22;49035;48.812;11.762;2023-05-29T03:32:24;6.60;99.90
22161;DHT22;49035;48.812;11.762;2023-05-29T03:34:50;6.60;99.90
22161;DHT22;49035;48.812;11.762;2023-05-29T03:37:16;6.70;99.90
22161;DHT22;49035;48.812;11.762;2023-05-29T03:39:41;6.70;99.90
22161;DHT22;49035;48.812;11.762;2023-05-29T03:42:07;6.70;99.90
22161;DHT22;49035;48.812;11.762;2023-05-29T03:44:33;6.70;99.90
22161;DHT22;49035;48.812;11.762;2023-05-29T03:46:58;6.70;99.90
22161;DHT22;49035;48.812;11.762;2023-05-29T03:49:24;6.70;99.90
22161;DHT22;49035;48.812;11.762;2023-05-29T03:51:50;6.70;99.90
22161;DHT22;49035;48.812;11.762;2023-05-29T03:54:15;6.70;99.90
22161;DHT22;49035;48.812;11.762;2023-05-29T03:56:41;6.80;99.90
22161;DHT22;49035;48.812;11.762;2023-05-29T03:59:06;6.90;99.90
22161;DHT22;49035;48.812;11.762;2023-05-29T04:01:32;7.00;99.90
22161;DHT22;49035;48.812;11.762;2023-05-29T04:03:58;7.00;99.90
22161;DHT22;49035;48.812;11.762;2023-05-29T04:06:23;7.10;99.90
22161;DHT22;49035;48.812;11.762;2023-05-29T04:08:49;7.20;99.90
22161;DHT22;49035;48.812;11.762;2023-05-29T04:11:15;7.30;99.90
22161;DHT22;49035;48.812;11.762;2023-05-29T04:13:41;7.80;99.90
22161;DHT22;49035;48.812;11.762;2023-05-29T04:16:07;8.40;99.90
22161;DHT22;49035;48.812;11.762;2023-05-29T04:18:33;9.00;99.90
22161;DHT22;49035;48.812;11.762;2023-05-29T04:20:58;9.60;99.90
22161;DHT22;49035;48.812;11.762;2023-05-29T04:23:24;10.40;99.90
22161;DHT22;49035;48.812;11.762;2023-05-29T04:25:50;10.90;99.90
22161;DHT22;49035;48.812;11.762;2023-05-29T04:28:16;11.40;99.90
22161;DHT22;49035;48.812;11.762;2023-05-29T04:30:42;12.00;99.90
22161;DHT22;49035;48.812;11.762;2023-05-29T04:33:08;12.40;99.90
22161;DHT22;49035;48.812;11.762;2023-05-29T04:35:38;12.80;99.90
22161;DHT22;49035;48.812;11.762;2023-05-29T04:38:03;13.50;99.90
22161;DHT22;49035;48.812;11.762;2023-05-29T04:40:30;14.10;99.90
22161;DHT22;49035;48.812;11.762;2023-05-29T04:42:57;14.80;99.90
22161;DHT22;49035;48.812;11.762;2023-05-29T04:45:25;15.40;99.90
22161;DHT22;49035;48.812;11.762;2023-05-29T04:47:51;15.70;99.90
22161;DHT22;49035;48.812;11.762;2023-05-29T04:50:18;16.00;99.90
22161;DHT22;49035;48.812;11.762;2023-05-29T04:52:44;16.20;99.90
22161;DHT22;49035;48.812;11.762;2023-05-29T04:55:10;16.60;99.90
22161;DHT22;49035;48.812;11.762;2023-05-29T04:57:36;17.10;99.90
22161;DHT22;49035;48.812;11.762;2023-05-29T05:00:02;17.80;99.90
22161;DHT22;49035;48.812;11.762;2023-05-29T05:02:32;18.20;99.90
22161;DHT22;49035;48.812;11.762;2023-05-29T05:04:57;18.50;98.70
22161;DHT22;49035;48.812;11.762;2023-05-29T05:07:24;18.70;95.10
22161;DHT22;49035;48.812;11.762;2023-05-29T05:09:49;19.20;93.00
22161;DHT22;49035;48.812;11.762;2023-05-29T05:12:15;19.70;91.50
22161;DHT22;49035;48.812;11.762;2023-05-29T05:14:41;20.00;91.10
22161;DHT22;49035;48.812;11.762;2023-05-29T05:17:06;20.40;91.30
22161;DHT22;49035;48.812;11.762;2023-05-29T05:19:32;20.70;86.00
22161;DHT22;49035;48.812;11.762;2023-05-29T05:21:57;20.70;83.60
22161;DHT22;49035;48.812;11.762;2023-05-29T05:24:23;20.90;83.70
22161;DHT22;49035;48.812;11.762;2023-05-29T05:26:49;21.40;73.30
22161;DHT22;49035;48.812;11.762;2023-05-29T05:29:14;21.60;72.10
22161;DHT22;49035;48.812;11.762;2023-05-29T05:31:40;21.60;73.40
22161;DHT22;49035;48.812;11.762;2023-05-29T05:34:05;21.80;74.70
22161;DHT22;49035;48.812;11.762;2023-05-29T05:36:31;22.30;69.40
22161;DHT22;49035;48.812;11.762;2023-05-29T05:38:58;22.40;68.20
22161;DHT22;49035;48.812;11.762;2023-05-29T05:41:23;22.70;65.50
22161;DHT22;49035;48.812;11.762;2023-05-29T05:43:49;22.40;66.80
22161;DHT22;49035;48.812;11.762;2023-05-29T05:46:15;22.40;68.30
22161;DHT22;49035;48.812;11.762;2023-05-29T05:48:42;22.70;67.80
22161;DHT22;49035;48.812;11.762;2023-05-29T05:51:08;22.80;70.40
22161;DHT22;49035;48.812;11.762;2023-05-29T05:53:33;23.20;66.70
22161;DHT22;49035;48.812;11.762;2023-05-29T05:55:59;23.50;65.90
22161;DHT22;49035;48.812;11.762;2023-05-29T05:58:25;23.50;66.20
22161;DHT22;49035;48.812;11.762;2023-05-29T06:00:50;22.90;66.60
22161;DHT22;49035;48.812;11.762;2023-05-29T06:03:17;22.80;68.70
22161;DHT22;49035;48.812;11.762;2023-05-29T06:05:43;23.10;68.80
22161;DHT22;49035;48.812;11.762;2023-05-29T06:08:08;23.20;70.20
22161;DHT22;49035;48.812;11.762;2023-05-29T06:10:37;23.40;67.20
22161;DHT22;49035;48.812;11.762;2023-05-29T06:13:03;23.40;66.60
22161;DHT22;49035;48.812;11.762;2023-05-29T06:15:28;24.40;59.90
22161;DHT22;49035;48.812;11.762;2023-05-29T06:17:54;24.60;59.50
22161;DHT22;49035;48.812;11.762;2023-05-29T06:20:21;24.40;61.40
22161;DHT22;49035;48.812;11.762;2023-05-29T06:22:46;24.40;60.70
22161;DHT22;49035;48.812;11.762;2023-05-29T06:25:16;24.50;57.60
22161;DHT22;49035;48.812;11.762;2023-05-29T06:27:42;24.10;61.70
22161;DHT22;49035;48.812;11.762;2023-05-29T06:30:08;23.70;62.50
22161;DHT22;49035;48.812;11.762;2023-05-29T06:32:33;24.00;61.50
22161;DHT22;49035;48.812;11.762;2023-05-29T06:34:59;24.00;61.80
22161;DHT22;49035;48.812;11.762;2023-05-29T06:37:25;24.20;59.90
22161;DHT22;49035;48.812;11.762;2023-05-29T06:39:50;24.20;56.70
22161;DHT22;49035;48.812;11.762;2023-05-29T06:42:16;24.20;60.90
22161;DHT22;49035;48.812;11.762;2023-05-29T06:44:41;24.20;60.80
22161;DHT22;49035;48.812;11.762;2023-05-29T06:47:07;24.40;59.60
22161;DHT22;49035;48.812;11.762;2023-05-29T06:49:32;24.10;57.90
22161;DHT22;49035;48.812;11.762;2023-05-29T06:51:58;24.20;60.20
22161;DHT22;49035;48.812;11.762;2023-05-29T06:54:24;24.10;56.00
22161;DHT22;49035;48.812;11.762;2023-05-29T06:56:49;24.30;55.10
22161;DHT22;49035;48.812;11.762;2023-05-29T06:59:15;24.30;57.60
22161;DHT22;49035;48.812;11.762;2023-05-29T07:01:40;24.10;56.70
22161;DHT22;49035;48.812;11.762;2023-05-29T07:04:06;24.30;55.80
22161;DHT22;49035;48.812;11.762;2023-05-29T07:06:32;24.70;58.90
22161;DHT22;49035;48.812;11.762;2023-05-29T07:08:59;24.80;54.10
22161;DHT22;49035;48.812;11.762;2023-05-29T07:11:25;24.70;54.80
22161;DHT22;49035;48.812;11.762;2023-05-29T07:13:53;24.40;56.90
22161;DHT22;49035;48.812;11.762;2023-05-29T07:16:18;24.60;55.10
22161;DHT22;49035;48.812;11.762;2023-05-29T07:18:44;24.70;58.60
22161;DHT22;49035;48.812;11.762;2023-05-29T07:21:10;24.50;59.60
22161;DHT22;49035;48.812;11.762;2023-05-29T07:23:36;24.70;55.90
22161;DHT22;49035;48.812;11.762;2023-05-29T07:26:01;24.90;56.40
22161;DHT22;49035;48.812;11.762;2023-05-29T07:28:27;25.00;55.90
22161;DHT22;49035;48.812;11.762;2023-05-29T07:30:52;25.10;58.30
22161;DHT22;49035;48.812;11.762;2023-05-29T07:33:18;25.30;57.60
22161;DHT22;49035;48.812;11.762;2023-05-29T07:35:43;24.90;53.50
22161;DHT22;49035;48.812;11.762;2023-05-29T07:38:09;25.00;55.40
22161;DHT22;49035;48.812;11.762;2023-05-29T07:40:34;25.00;53.50
22161;DHT22;49035;48.812;11.762;2023-05-29T07:43:00;25.30;54.90
22161;DHT22;49035;48.812;11.762;2023-05-29T07:45:26;25.30;55.90
22161;DHT22;49035;48.812;11.762;2023-05-29T07:47:52;25.40;52.80
22161;DHT22;49035;48.812;11.762;2023-05-29T07:50:17;25.30;53.50
22161;DHT22;49035;48.812;11.762;2023-05-29T07:52:43;25.10;55.20
22161;DHT22;49035;48.812;11.762;2023-05-29T07:55:11;25.50;53.80
22161;DHT22;49035;48.812;11.762;2023-05-29T07:57:37;25.60;53.10
22161;DHT22;49035;48.812;11.762;2023-05-29T08:00:05;25.60;54.30
22161;DHT22;49035;48.812;11.762;2023-05-29T08:02:35;25.50;55.10
22161;DHT22;49035;48.812;11.762;2023-05-29T08:05:03;25.30;52.20
22161;DHT22;49035;48.812;11.762;2023-05-29T08:07:29;25.10;53.20
22161;DHT22;49035;48.812;11.762;2023-05-29T08:09:55;24.90;53.50
22161;DHT22;49035;48.812;11.762;2023-05-29T08:12:21;24.80;57.30
22161;DHT22;49035;48.812;11.762;2023-05-29T08:14:46;25.10;55.90
22161;DHT22;49035;48.812;11.762;2023-05-29T08:17:12;25.10;54.60
22161;DHT22;49035;48.812;11.762;2023-05-29T08:19:38;24.90;56.40
22161;DHT22;49035;48.812;11.762;2023-05-29T08:22:03;25.20;55.50
22161;DHT22;49035;48.812;11.762;2023-05-29T08:24:29;25.40;54.10
22161;DHT22;49035;48.812;11.762;2023-05-29T08:26:54;25.80;51.60
22161;DHT22;49035;48.812;11.762;2023-05-29T08:29:20;26.00;53.90
22161;DHT22;49035;48.812;11.762;2023-05-29T08:31:45;26.00;54.70
22161;DHT22;49035;48.812;11.762;2023-05-29T08:34:11;26.40;53.50
22161;DHT22;49035;48.812;11.762;2023-05-29T08:36:37;26.30;50.70
22161;DHT22;49035;48.812;11.762;2023-05-29T08:39:02;26.00;49.90
22161;DHT22;49035;48.812;11.762;2023-05-29T08:41:49;26.00;53.00
22161;DHT22;49035;48.812;11.762;2023-05-29T08:44:21;26.30;53.40
22161;DHT22;49035;48.812;11.762;2023-05-29T08:46:47;26.40;54.40
22161;DHT22;49035;48.812;11.762;2023-05-29T08:49:16;26.40;51.10
22161;DHT22;49035;48.812;11.762;2023-05-29T08:51:47;26.60;51.80
22161;DHT22;49035;48.812;11.762;2023-05-29T08:54:15;26.40;51.20
22161;DHT22;49035;48.812;11.762;2023-05-29T08:56:41;26.10;53.30
22161;DHT22;49035;48.812;11.762;2023-05-29T08:59:08;25.70;50.10
22161;DHT22;49035;48.812;11.762;2023-05-29T09:01:35;25.50;50.50
22161;DHT22;49035;48.812;11.762;2023-05-29T09:04:01;25.60;52.90
22161;DHT22;49035;48.812;11.762;2023-05-29T09:06:28;25.90;53.70
22161;DHT22;49035;48.812;11.762;2023-05-29T09:08:53;26.20;51.90
22161;DHT22;49035;48.812;11.762;2023-05-29T09:11:19;26.30;52.10
22161;DHT22;49035;48.812;11.762;2023-05-29T09:13:46;26.50;51.90
22161;DHT22;49035;48.812;11.762;2023-05-29T09:16:12;26.80;52.30
22161;DHT22;49035;48.812;11.762;2023-05-29T09:18:37;26.90;51.50
22161;DHT22;49035;48.812;11.762;2023-05-29T09:21:07;27.10;52.10
22161;DHT22;49035;48.812;11.762;2023-05-29T09:23:36;27.40;54.40
22161;DHT22;49035;48.812;11.762;2023-05-29T09:26:02;27.20;50.50
22161;DHT22;49035;48.812;11.762;2023-05-29T09:28:30;26.80;50.00
22161;DHT22;49035;48.812;11.762;2023-05-29T09:30:56;26.70;53.30
22161;DHT22;49035;48.812;11.762;2023-05-29T09:33:22;26.70;49.90
22161;DHT22;49035;48.812;11.762;2023-05-29T09:35:49;26.70;52.10
22161;DHT22;49035;48.812;11.762;2023-05-29T09:38:17;26.40;52.30
22161;DHT22;49035;48.812;11.762;2023-05-29T09:40:43;26.30;50.90
22161;DHT22;49035;48.812;11.762;2023-05-29T09:43:16;26.40;50.30
22161;DHT22;49035;48.812;11.762;2023-05-29T09:45:50;26.00;47.90
22161;DHT22;49035;48.812;11.762;2023-05-29T09:48:22;26.20;50.70
22161;DHT22;49035;48.812;11.762;2023-05-29T09:50:48;26.50;51.50
22161;DHT22;49035;48.812;11.762;2023-05-29T09:53:24;27.00;50.50
22161;DHT22;49035;48.812;11.762;2023-05-29T09:55:55;27.50;47.60
22161;DHT22;49035;48.812;11.762;2023-05-29T09:58:24;27.60;47.90
22161;DHT22;49035;48.812;11.762;2023-05-29T10:00:51;27.80;45.10
22161;DHT22;49035;48.812;11.762;2023-05-29T10:03:18;27.50;43.90
22161;DHT22;49035;48.812;11.762;2023-05-29T10:05:50;26.70;48.70
22161;DHT22;49035;48.812;11.762;2023-05-29T10:08:19;26.60;51.40
22161;DHT22;49035;48.812;11.762;2023-05-29T10:10:55;26.60;46.40
22161;DHT22;49035;48.812;11.762;2023-05-29T10:13:25;26.50;47.60
22161;DHT22;49035;48.812;11.762;2023-05-29T10:15:51;26.60;50.70
22161;DHT22;49035;48.812;11.762;2023-05-29T10:20:52;26.10;49.40
22161;DHT22;49035;48.812;11.762;2023-05-29T10:23:22;25.90;52.00
22161;DHT22;49035;48.812;11.762;2023-05-29T10:26:02;26.00;49.30
22161;DHT22;49035;48.812;11.762;2023-05-29T10:28:33;25.80;47.40
22161;DHT22;49035;48.812;11.762;2023-05-29T10:31:09;26.10;49.10
22161;DHT22;49035;48.812;11.762;2023-05-29T10:34:07;25.90;48.70
22161;DHT22;49035;48.812;11.762;2023-05-29T10:36:38;25.60;48.40
22161;DHT22;49035;48.812;11.762;2023-05-29T10:39:05;25.70;48.90
22161;DHT22;49035;48.812;11.762;2023-05-29T10:41:33;25.40;49.60
22161;DHT22;49035;48.812;11.762;2023-05-29T10:44:00;25.90;49.80
22161;DHT22;49035;48.812;11.762;2023-05-29T10:49:20;26.30;47.80
22161;DHT22;49035;48.812;11.762;2023-05-29T10:51:47;26.20;46.60
22161;DHT22;49035;48.812;11.762;2023-05-29T10:54:13;26.30;47.50
22161;DHT22;49035;48.812;11.762;2023-05-29T10:56:39;26.40;48.90
22161;DHT22;49035;48.812;11.762;2023-05-29T10:59:08;26.40;46.70
22161;DHT22;49035;48.812;11.762;2023-05-29T11:01:34;26.00;49.00
22161;DHT22;49035;48.812;11.762;2023-05-29T11:04:29;26.00;49.10
22161;DHT22;49035;48.812;11.762;2023-05-29T11:06:58;26.20;51.00
22161;DHT22;49035;48.812;11.762;2023-05-29T11:09:33;26.30;49.90
22161;DHT22;49035;48.812;11.762;2023-05-29T11:12:24;26.50;50.20
22161;DHT22;49035;48.812;11.762;2023-05-29T11:15:10;26.40;46.00
22161;DHT22;49035;48.812;11.762;2023-05-29T11:20:07;26.00;45.40
22161;DHT22;49035;48.812;11.762;2023-05-29T11:25:15;26.70;46.90
22161;DHT22;49035;48.812;11.762;2023-05-29T11:27:43;26.90;45.00
22161;DHT22;49035;48.812;11.762;2023-05-29T11:30:09;27.20;47.20
22161;DHT22;49035;48.812;11.762;2023-05-29T11:32:36;26.90;43.00
22161;DHT22;49035;48.812;11.762;2023-05-29T11:35:07;26.50;48.30
22161;DHT22;49035;48.812;11.762;2023-05-29T11:37:41;26.40;46.90
22161;DHT22;49035;48.812;11.762;2023-05-29T11:40:12;26.40;45.00
22161;DHT22;49035;48.812;11.762;2023-05-29T11:42:42;26.70;48.50
22161;DHT22;49035;48.812;11.762;2023-05-29T11:45:15;26.40;48.60
22161;DHT22;49035;48.812;11.762;2023-05-29T11:47:57;26.00;43.70
22161;DHT22;49035;48.812;11.762;2023-05-29T11:50:24;25.90;49.30
22161;DHT22;49035;48.812;11.762;2023-05-29T11:52:50;25.70;45.50
22161;DHT22;49035;48.812;11.762;2023-05-29T11:55:20;25.90;47.70
22161;DHT22;49035;48.812;11.762;2023-05-29T11:57:49;26.50;46.60
22161;DHT22;49035;48.812;11.762;2023-05-29T12:00:17;26.90;44.00
22161;DHT22;49035;48.812;11.762;2023-05-29T12:02:44;27.20;48.80
22161;DHT22;49035;48.812;11.762;2023-05-29T12:05:13;27.40;44.60
22161;DHT22;49035;48.812;11.762;2023-05-29T12:07:50;27.40;45.50
22161;DHT22;49035;48.812;11.762;2023-05-29T12:10:17;27.00;41.20
22161;DHT22;49035;48.812;11.762;2023-05-29T12:12:47;27.00;46.20
22161;DHT22;49035;48.812;11.762;2023-05-29T12:15:13;27.00;44.70
22161;DHT22;49035;48.812;11.762;2023-05-29T12:17:40;27.10;42.60
22161;DHT22;49035;48.812;11.762;2023-05-29T12:20:06;27.20;42.00
22161;DHT22;49035;48.812;11.762;2023-05-29T12:22:36;27.10;41.60
22161;DHT22;49035;48.812;11.762;2023-05-29T12:27:38;27.50;44.40
22161;DHT22;49035;48.812;11.762;2023-05-29T12:30:13;27.70;43.80
22161;DHT22;49035;48.812;11.762;2023-05-29T12:32:44;27.80;43.70
22161;DHT22;49035;48.812;11.762;2023-05-29T12:37:46;27.90;43.10
22161;DHT22;49035;48.812;11.762;2023-05-29T12:40:17;27.40;41.20
22161;DHT22;49035;48.812;11.762;2023-05-29T12:42:43;27.00;40.10
22161;DHT22;49035;48.812;11.762;2023-05-29T12:45:09;26.80;39.70
22161;DHT22;49035;48.812;11.762;2023-05-29T12:47:36;27.00;46.60
22161;DHT22;49035;48.812;11.762;2023-05-29T12:50:24;27.40;47.50
22161;DHT22;49035;48.812;11.762;2023-05-29T12:55:20;28.10;44.40
22161;DHT22;49035;48.812;11.762;2023-05-29T12:57:46;28.10;41.40
22161;DHT22;49035;48.812;11.762;2023-05-29T13:00:12;28.10;43.30
22161;DHT22;49035;48.812;11.762;2023-05-29T13:02:38;27.90;41.90
22161;DHT22;49035;48.812;11.762;2023-05-29T13:05:04;27.80;43.50
22161;DHT22;49035;48.812;11.762;2023-05-29T13:07:31;28.00;42.40
22161;DHT22;49035;48.812;11.762;2023-05-29T13:09:57;27.70;41.80
22161;DHT22;49035;48.812;11.762;2023-05-29T13:12:22;27.50;38.70
22161;DHT22;49035;48.812;11.762;2023-05-29T13:14:48;27.30;42.90
22161;DHT22;49035;48.812;11.762;2023-05-29T13:17:13;27.10;40.10
22161;DHT22;49035;48.812;11.762;2023-05-29T13:19:39;27.60;45.80
22161;DHT22;49035;48.812;11.762;2023-05-29T13:22:05;27.90;43.50
22161;DHT22;49035;48.812;11.762;2023-05-29T13:24:30;28.30;44.20
22161;DHT22;49035;48.812;11.762;2023-05-29T13:26:56;28.40;41.10
22161;DHT22;49035;48.812;11.762;2023-05-29T13:29:21;28.50;39.10
22161;DHT22;49035;48.812;11.762;2023-05-29T13:31:47;28.00;38.10
22161;DHT22;49035;48.812;11.762;2023-05-29T13:34:12;27.30;40.30
22161;DHT22;49035;48.812;11.762;2023-05-29T13:36:38;27.50;40.30
22161;DHT22;49035;48.812;11.762;2023-05-29T13:39:04;28.00;43.80
22161;DHT22;49035;48.812;11.762;2023-05-29T13:41:30;28.30;41.80
22161;DHT22;49035;48.812;11.762;2023-05-29T13:43:56;28.40;41.20
22161;DHT22;49035;48.812;11.762;2023-05-29T13:46:22;28.50;41.40
22161;DHT22;49035;48.812;11.762;2023-05-29T13:48:47;28.20;44.10
22161;DHT22;49035;48.812;11.762;2023-05-29T13:51:13;28.20;38.70
22161;DHT22;49035;48.812;11.762;2023-05-29T13:53:39;28.50;46.10
22161;DHT22;49035;48.812;11.762;2023-05-29T13:56:04;28.80;40.30
22161;DHT22;49035;48.812;11.762;2023-05-29T13:58:30;29.30;43.00
22161;DHT22;49035;48.812;11.762;2023-05-29T14:00:56;29.80;43.60
22161;DHT22;49035;48.812;11.762;2023-05-29T14:03:21;30.00;39.30
22161;DHT22;49035;48.812;11.762;2023-05-29T14:05:49;29.60;38.50
22161;DHT22;49035;48.812;11.762;2023-05-29T14:08:15;29.60;44.00
22161;DHT22;49035;48.812;11.762;2023-05-29T14:10:40;29.90;40.80
22161;DHT22;49035;48.812;11.762;2023-05-29T14:13:06;30.10;34.70
22161;DHT22;49035;48.812;11.762;2023-05-29T14:15:32;30.00;38.30
22161;DHT22;49035;48.812;11.762;2023-05-29T14:17:57;30.20;38.60
22161;DHT22;49035;48.812;11.762;2023-05-29T14:20:23;29.90;39.30
22161;DHT22;49035;48.812;11.762;2023-05-29T14:22:49;29.30;40.80
22161;DHT22;49035;48.812;11.762;2023-05-29T14:25:14;29.30;35.30
22161;DHT22;49035;48.812;11.762;2023-05-29T14:27:40;29.60;38.80
22161;DHT22;49035;48.812;11.762;2023-05-29T14:30:06;29.70;34.10
22161;DHT22;49035;48.812;11.762;2023-05-29T14:32:32;29.70;36.10
22161;DHT22;49035;48.812;11.762;2023-05-29T14:34:58;29.50;37.50
22161;DHT22;49035;48.812;11.762;2023-05-29T14:37:23;29.00;41.90
22161;DHT22;49035;48.812;11.762;2023-05-29T14:39:49;28.60;37.20
22161;DHT22;49035;48.812;11.762;2023-05-29T14:42:15;28.80;37.00
22161;DHT22;49035;48.812;11.762;2023-05-29T14:44:41;28.50;37.30
22161;DHT22;49035;48.812;11.762;2023-05-29T14:47:07;28.50;36.70
22161;DHT22;49035;48.812;11.762;2023-05-29T14:49:32;28.50;37.70
22161;DHT22;49035;48.812;11.762;2023-05-29T14:51:59;28.90;38.20
22161;DHT22;49035;48.812;11.762;2023-05-29T14:54:25;29.20;38.10
22161;DHT22;49035;48.812;11.762;2023-05-29T14:56:50;29.00;34.30
22161;DHT22;49035;48.812;11.762;2023-05-29T14:59:16;28.90;41.10
22161;DHT22;49035;48.812;11.762;2023-05-29T15:01:41;28.60;38.80
22161;DHT22;49035;48.812;11.762;2023-05-29T15:04:07;28.70;36.50
22161;DHT22;49035;48.812;11.762;2023-05-29T15:06:32;28.90;37.20
22161;DHT22;49035;48.812;11.762;2023-05-29T15:08:58;29.20;38.40
22161;DHT22;49035;48.812;11.762;2023-05-29T15:11:28;29.60;37.00
22161;DHT22;49035;48.812;11.762;2023-05-29T15:13:54;29.90;37.60
22161;DHT22;49035;48.812;11.762;2023-05-29T15:16:19;30.00;36.00
22161;DHT22;49035;48.812;11.762;2023-05-29T15:18:45;30.10;37.20
22161;DHT22;49035;48.812;11.762;2023-05-29T15:21:11;30.80;40.50
22161;DHT22;49035;48.812;11.762;2023-05-29T15:23:36;31.50;38.80
22161;DHT22;49035;48.812;11.762;2023-05-29T15:26:04;32.00;40.30
22161;DHT22;49035;48.812;11.762;2023-05-29T15:28:30;31.90;35.30
22161;DHT22;49035;48.812;11.762;2023-05-29T15:30:56;31.80;36.40
22161;DHT22;49035;48.812;11.762;2023-05-29T15:33:22;32.10;36.60
22161;DHT22;49035;48.812;11.762;2023-05-29T15:35:47;31.80;35.10
22161;DHT22;49035;48.812;11.762;2023-05-29T15:38:15;32.90;35.10
22161;DHT22;49035;48.812;11.762;2023-05-29T15:40:41;33.40;37.70
22161;DHT22;49035;48.812;11.762;2023-05-29T15:43:07;34.10;36.20
22161;DHT22;49035;48.812;11.762;2023-05-29T15:45:33;34.30;34.70